sensor_id;sensor_type;location;lat;lon;timestamp;temperature;humidity
29031;DHT22;16122;50.236;11.734;2023-08-30T00:00:42;18.60;80.10
29031;DHT22;16122;50.236;11.734;2023-08-30T00:03:08;18.60;80.10
29031;DHT22;16122;50.236;11.734;2023-08-30T00:05:33;18.60;80.00
29031;DHT22;16122;50.236;11.734;2023-08-30T00:07:59;18.60;80.00
29031;DHT22;16122;50.236;11.734;2023-08-30T00:10:25;18.60;80.00
29031;DHT22;16122;50.236;11.734;2023-08-30T00:12:51;18.60;80.00
29031;DHT22;16122;50.236;11.734;2023-08-30T00:15:17;18.60;80.70
29031;DHT22;16122;50.236;11.734;2023-08-30T00:17:43;18.60;79.90
29031;DHT22;16122;50.236;11.734;2023-08-30T00:20:09;18.60;79.90
29031;DHT22;16122;50.236;11.734;2023-08-30T00:22:35;18.60;80.00
29031;DHT22;16122;50.236;11.734;2023-08-30T00:25:01;18.60;79.90
29031;DHT22;16122;50.236;11.734;2023-08-30T00:27:27;18.60;79.90
29031;DHT22;16122;50.236;11.734;2023-08-30T00:29:53;18.60;79.90
29031;DHT22;16122;50.236;11.734;2023-08-30T00:32:19;18.60;79.80
29031;DHT22;16122;50.236;11.734;2023-08-30T00:34:45;18.60;79.90
29031;DHT22;16122;50.236;11.734;2023-08-30T00:37:11;18.60;79.90
29031;DHT22;16122;50.236;11.734;2023-08-30T00:39:39;18.60;79.80
29031;DHT22;16122;50.236;11.734;2023-08-30T00:42:06;18.60;79.90
29031;DHT22;16122;50.236;11.734;2023-08-30T00:44:34;18.60;79.80
29031;DHT22;16122;50.236;11.734;2023-08-30T00:47:01;18.60;79.80
29031;DHT22;16122;50.236;11.734;2023-08-30T00:49:28;18.60;79.80
29031;DHT22;16122;50.236;11.734;2023-08-30T00:51:54;18.60;79.80
29031;DHT22;16122;50.236;11.734;2023-08-30T00:54:20;18.60;79.80
29031;DHT22;16122;50.236;11.734;2023-08-30T00:56:46;18.60;79.70
29031;DHT22;16122;50.236;11.734;2023-08-30T00:59:13;18.60;79.70
29031;DHT22;16122;50.236;11.734;2023-08-30T01:01:40;18.60;79.70
29031;DHT22;16122;50.236;11.734;2023-08-30T01:04:06;18.60;79.70
29031;DHT22;16122;50.236;11.734;2023-08-30T01:06:33;18.60;79.70
29031;DHT22;16122;50.236;11.734;2023-08-30T01:09:02;18.50;79.50
29031;DHT22;16122;50.236;11.734;2023-08-30T01:11:50;18.60;79.70
29031;DHT22;16122;50.236;11.734;2023-08-30T01:14:22;18.60;79.70
29031;DHT22;16122;50.236;11.734;2023-08-30T01:16:48;18.60;79.70
29031;DHT22;16122;50.236;11.734;2023-08-30T01:21:56;18.50;79.50
29031;DHT22;16122;50.236;11.734;2023-08-30T01:24:35;18.50;79.50
29031;DHT22;16122;50.236;11.734;2023-08-30T01:27:12;18.50;79.50
29031;DHT22;16122;50.236;11.734;2023-08-30T01:29:42;18.50;79.50
29031;DHT22;16122;50.236;11.734;2023-08-30T01:32:09;18.50;79.50
29031;DHT22;16122;50.236;11.734;2023-08-30T01:34:37;18.50;79.50
29031;DHT22;16122;50.236;11.734;2023-08-30T01:37:07;18.50;79.50
29031;DHT22;16122;50.236;11.734;2023-08-30T01:39:40;18.50;79.50
29031;DHT22;16122;50.236;11.734;2023-08-30T01:42:08;18.50;79.40
29031;DHT22;16122;50.236;11.734;2023-08-30T01:44:35;18.50;79.40
29031;DHT22;16122;50.236;11.734;2023-08-30T01:47:03;18.50;79.40
29031;DHT22;16122;50.236;11.734;2023-08-30T01:49:30;18.50;79.40
29031;DHT22;16122;50.236;11.734;2023-08-30T01:51:59;18.50;79.40
29031;DHT22;16122;50.236;11.734;2023-08-30T01:54:27;18.50;79.40
29031;DHT22;16122;50.236;11.734;2023-08-30T01:56:53;18.50;79.40
29031;DHT22;16122;50.236;11.734;2023-08-30T01:59:19;18.50;79.30
29031;DHT22;16122;50.236;11.734;2023-08-30T02:01:45;18.50;79.40
29031;DHT22;16122;50.236;11.734;2023-08-30T02:04:11;18.50;79.40
29031;DHT22;16122;50.236;11.734;2023-08-30T02:06:45;18.50;79.30
29031;DHT22;16122;50.236;11.734;2023-08-30T02:12:00;18.50;79.30
29031;DHT22;16122;50.236;11.734;2023-08-30T02:14:30;18.50;79.30
29031;DHT22;16122;50.236;11.734;2023-08-30T02:16:58;18.50;79.30
29031;DHT22;16122;50.236;11.734;2023-08-30T02:19:24;18.50;79.20
29031;DHT22;16122;50.236;11.734;2023-08-30T02:21:50;18.50;79.20
29031;DHT22;16122;50.236;11.734;2023-08-30T02:24:17;18.50;79.20
29031;DHT22;16122;50.236;11.734;2023-08-30T02:26:43;18.50;79.30
29031;DHT22;16122;50.236;11.734;2023-08-30T02:29:09;18.50;79.30
29031;DHT22;16122;50.236;11.734;2023-08-30T02:31:37;18.40;79.20
29031;DHT22;16122;50.236;11.734;2023-08-30T02:34:02;18.40;79.10
29031;DHT22;16122;50.236;11.734;2023-08-30T02:36:29;18.40;79.10
29031;DHT22;16122;50.236;11.734;2023-08-30T02:38:56;18.40;79.10
29031;DHT22;16122;50.236;11.734;2023-08-30T02:41:21;18.40;79.20
29031;DHT22;16122;50.236;11.734;2023-08-30T02:43:48;18.40;79.10
29031;DHT22;16122;50.236;11.734;2023-08-30T02:46:13;18.40;79.10
29031;DHT22;16122;50.236;11.734;2023-08-30T02:48:39;18.40;79.10
29031;DHT22;16122;50.236;11.734;2023-08-30T02:51:07;18.40;79.00
29031;DHT22;16122;50.236;11.734;2023-08-30T02:53:33;18.40;79.10
29031;DHT22;16122;50.236;11.734;2023-08-30T02:55:58;18.40;79.00
29031;DHT22;16122;50.236;11.734;2023-08-30T02:58:24;18.40;79.10
29031;DHT22;16122;50.236;11.734;2023-08-30T03:00:56;18.40;79.10
29031;DHT22;16122;50.236;11.734;2023-08-30T03:03:22;18.40;79.10
29031;DHT22;16122;50.236;11.734;2023-08-30T03:05:47;18.40;79.10
29031;DHT22;16122;50.236;11.734;2023-08-30T03:08:14;18.40;79.00
29031;DHT22;16122;50.236;11.734;2023-08-30T03:10:39;18.40;79.00
29031;DHT22;16122;50.236;11.734;2023-08-30T03:13:06;18.40;79.00
29031;DHT22;16122;50.236;11.734;2023-08-30T03:15:32;18.40;79.10
29031;DHT22;16122;50.236;11.734;2023-08-30T03:18:00;18.40;79.00
29031;DHT22;16122;50.236;11.734;2023-08-30T03:20:26;18.40;79.00
29031;DHT22;16122;50.236;11.734;2023-08-30T03:22:56;18.40;79.00
29031;DHT22;16122;50.236;11.734;2023-08-30T03:25:22;18.40;79.00
29031;DHT22;16122;50.236;11.734;2023-08-30T03:27:48;18.40;79.00
29031;DHT22;16122;50.236;11.734;2023-08-30T03:30:15;18.40;79.00
29031;DHT22;16122;50.236;11.734;2023-08-30T03:32:42;18.40;79.00
29031;DHT22;16122;50.236;11.734;2023-08-30T03:35:08;18.40;79.00
29031;DHT22;16122;50.236;11.734;2023-08-30T03:37:34;18.40;79.00
29031;DHT22;16122;50.236;11.734;2023-08-30T03:40:01;18.40;78.90
29031;DHT22;16122;50.236;11.734;2023-08-30T03:42:27;18.40;78.90
29031;DHT22;16122;50.236;11.734;2023-08-30T03:44:53;18.40;79.00
29031;DHT22;16122;50.236;11.734;2023-08-30T03:47:19;18.40;78.90
29031;DHT22;16122;50.236;11.734;2023-08-30T03:49:44;18.40;79.00
29031;DHT22;16122;50.236;11.734;2023-08-30T03:52:10;18.40;79.10
29031;DHT22;16122;50.236;11.734;2023-08-30T03:54:36;18.40;79.30
29031;DHT22;16122;50.236;11.734;2023-08-30T03:57:02;18.40;79.70
29031;DHT22;16122;50.236;11.734;2023-08-30T03:59:28;18.40;80.30
29031;DHT22;16122;50.236;11.734;2023-08-30T04:01:54;18.40;80.60
29031;DHT22;16122;50.236;11.734;2023-08-30T04:04:20;18.40;80.80
29031;DHT22;16122;50.236;11.734;2023-08-30T04:06:48;18.40;80.90
29031;DHT22;16122;50.236;11.734;2023-08-30T04:09:15;18.40;80.90
29031;DHT22;16122;50.236;11.734;2023-08-30T04:11:41;18.40;80.80
29031;DHT22;16122;50.236;11.734;2023-08-30T04:14:08;18.40;80.90
29031;DHT22;16122;50.236;11.734;2023-08-30T04:16:34;18.40;80.70
29031;DHT22;16122;50.236;11.734;2023-08-30T04:19:00;18.40;80.60
29031;DHT22;16122;50.236;11.734;2023-08-30T04:21:26;18.40;80.50
29031;DHT22;16122;50.236;11.734;2023-08-30T04:23:52;18.40;80.50
29031;DHT22;16122;50.236;11.734;2023-08-30T04:26:17;18.40;80.40
29031;DHT22;16122;50.236;11.734;2023-08-30T04:28:43;18.40;80.30
29031;DHT22;16122;50.236;11.734;2023-08-30T04:31:09;18.40;80.40
29031;DHT22;16122;50.236;11.734;2023-08-30T04:33:35;18.40;80.40
29031;DHT22;16122;50.236;11.734;2023-08-30T04:36:03;18.40;80.40
29031;DHT22;16122;50.236;11.734;2023-08-30T04:38:29;18.40;80.40
29031;DHT22;16122;50.236;11.734;2023-08-30T04:40:57;18.40;80.30
29031;DHT22;16122;50.236;11.734;2023-08-30T04:43:24;18.40;80.60
29031;DHT22;16122;50.236;11.734;2023-08-30T04:45:51;18.40;80.90
29031;DHT22;16122;50.236;11.734;2023-08-30T04:48:16;18.40;81.00
29031;DHT22;16122;50.236;11.734;2023-08-30T04:50:43;18.40;81.00
29031;DHT22;16122;50.236;11.734;2023-08-30T04:53:09;18.40;80.90
29031;DHT22;16122;50.236;11.734;2023-08-30T04:55:35;18.40;81.00
29031;DHT22;16122;50.236;11.734;2023-08-30T04:58:01;18.40;81.80
29031;DHT22;16122;50.236;11.734;2023-08-30T05:00:32;18.40;81.90
29031;DHT22;16122;50.236;11.734;2023-08-30T05:02:57;18.50;82.00
29031;DHT22;16122;50.236;11.734;2023-08-30T05:05:23;18.50;82.00
29031;DHT22;16122;50.236;11.734;2023-08-30T05:07:49;18.50;82.00
29031;DHT22;16122;50.236;11.734;2023-08-30T05:10:15;18.50;81.90
29031;DHT22;16122;50.236;11.734;2023-08-30T05:12:41;18.50;82.00
29031;DHT22;16122;50.236;11.734;2023-08-30T05:15:10;18.50;82.00
29031;DHT22;16122;50.236;11.734;2023-08-30T05:17:36;18.50;82.00
29031;DHT22;16122;50.236;11.734;2023-08-30T05:20:02;18.50;81.90
29031;DHT22;16122;50.236;11.734;2023-08-30T05:22:28;18.50;81.80
29031;DHT22;16122;50.236;11.734;2023-08-30T05:24:54;18.50;81.90
29031;DHT22;16122;50.236;11.734;2023-08-30T05:27:20;18.50;81.90
29031;DHT22;16122;50.236;11.734;2023-08-30T05:29:47;18.50;81.80
29031;DHT22;16122;50.236;11.734;2023-08-30T05:32:13;18.50;81.80
29031;DHT22;16122;50.236;11.734;2023-08-30T05:35:05;18.50;81.80
29031;DHT22;16122;50.236;11.734;2023-08-30T05:37:53;18.50;81.70
29031;DHT22;16122;50.236;11.734;2023-08-30T05:40:28;18.50;81.60
29031;DHT22;16122;50.236;11.734;2023-08-30T05:42:53;18.50;81.60
29031;DHT22;16122;50.236;11.734;2023-08-30T05:45:21;18.50;81.60
29031;DHT22;16122;50.236;11.734;2023-08-30T05:47:47;18.50;81.60
29031;DHT22;16122;50.236;11.734;2023-08-30T05:50:13;18.50;81.60
29031;DHT22;16122;50.236;11.734;2023-08-30T05:52:40;18.50;81.60
29031;DHT22;16122;50.236;11.734;2023-08-30T05:55:10;18.50;81.60
29031;DHT22;16122;50.236;11.734;2023-08-30T05:57:37;18.50;81.50
29031;DHT22;16122;50.236;11.734;2023-08-30T06:00:03;18.50;81.50
29031;DHT22;16122;50.236;11.734;2023-08-30T06:02:40;18.50;81.60
29031;DHT22;16122;50.236;11.734;2023-08-30T06:05:06;18.60;81.40
29031;DHT22;16122;50.236;11.734;2023-08-30T06:07:32;18.60;81.10
29031;DHT22;16122;50.236;11.734;2023-08-30T06:09:58;18.60;80.90
29031;DHT22;16122;50.236;11.734;2023-08-30T06:12:24;18.50;80.70
29031;DHT22;16122;50.236;11.734;2023-08-30T06:14:51;18.60;80.70
29031;DHT22;16122;50.236;11.734;2023-08-30T06:17:21;18.60;80.60
29031;DHT22;16122;50.236;11.734;2023-08-30T06:19:47;18.60;80.60
29031;DHT22;16122;50.236;11.734;2023-08-30T06:22:13;18.60;80.70
29031;DHT22;16122;50.236;11.734;2023-08-30T06:24:39;18.60;81.10
29031;DHT22;16122;50.236;11.734;2023-08-30T06:27:05;18.60;81.30
29031;DHT22;16122;50.236;11.734;2023-08-30T06:29:31;18.50;81.40
29031;DHT22;16122;50.236;11.734;2023-08-30T06:31:58;18.60;81.60
29031;DHT22;16122;50.236;11.734;2023-08-30T06:34:24;18.50;81.70
29031;DHT22;16122;50.236;11.734;2023-08-30T06:36:50;18.50;81.70
29031;DHT22;16122;50.236;11.734;2023-08-30T06:39:17;18.60;81.90
29031;DHT22;16122;50.236;11.734;2023-08-30T06:41:43;18.60;81.60
29031;DHT22;16122;50.236;11.734;2023-08-30T06:44:12;18.60;81.20
29031;DHT22;16122;50.236;11.734;2023-08-30T06:46:38;18.60;81.00
29031;DHT22;16122;50.236;11.734;2023-08-30T06:49:04;18.60;80.80
29031;DHT22;16122;50.236;11.734;2023-08-30T06:51:30;18.60;80.80
29031;DHT22;16122;50.236;11.734;2023-08-30T06:53:56;18.60;80.50
29031;DHT22;16122;50.236;11.734;2023-08-30T06:56:26;18.60;80.50
29031;DHT22;16122;50.236;11.734;2023-08-30T06:58:52;18.60;80.40
29031;DHT22;16122;50.236;11.734;2023-08-30T07:01:18;18.60;80.40
29031;DHT22;16122;50.236;11.734;2023-08-30T07:03:43;18.60;80.40
29031;DHT22;16122;50.236;11.734;2023-08-30T07:06:10;18.60;80.30
29031;DHT22;16122;50.236;11.734;2023-08-30T07:08:35;18.60;80.30
29031;DHT22;16122;50.236;11.734;2023-08-30T07:11:01;18.60;80.30
29031;DHT22;16122;50.236;11.734;2023-08-30T07:13:27;18.70;80.30
29031;DHT22;16122;50.236;11.734;2023-08-30T07:15:53;18.60;80.20
29031;DHT22;16122;50.236;11.734;2023-08-30T07:18:20;18.60;80.10
29031;DHT22;16122;50.236;11.734;2023-08-30T07:20:45;18.70;80.50
29031;DHT22;16122;50.236;11.734;2023-08-30T07:23:11;18.70;80.60
29031;DHT22;16122;50.236;11.734;2023-08-30T07:25:38;18.70;80.50
29031;DHT22;16122;50.236;11.734;2023-08-30T07:28:05;18.70;80.60
29031;DHT22;16122;50.236;11.734;2023-08-30T07:30:31;18.70;80.40
29031;DHT22;16122;50.236;11.734;2023-08-30T07:32:56;18.70;80.50
29031;DHT22;16122;50.236;11.734;2023-08-30T07:35:22;18.70;80.70
29031;DHT22;16122;50.236;11.734;2023-08-30T07:37:48;18.70;80.90
29031;DHT22;16122;50.236;11.734;2023-08-30T07:40:14;18.70;81.00
29031;DHT22;16122;50.236;11.734;2023-08-30T07:42:40;18.70;81.10
29031;DHT22;16122;50.236;11.734;2023-08-30T07:45:06;18.70;81.30
29031;DHT22;16122;50.236;11.734;2023-08-30T07:47:32;18.70;81.50
29031;DHT22;16122;50.236;11.734;2023-08-30T07:49:58;18.70;81.60
29031;DHT22;16122;50.236;11.734;2023-08-30T07:52:24;18.70;81.80
29031;DHT22;16122;50.236;11.734;2023-08-30T07:54:49;18.70;82.00
29031;DHT22;16122;50.236;11.734;2023-08-30T07:57:15;18.70;82.90
29031;DHT22;16122;50.236;11.734;2023-08-30T07:59:41;18.80;82.70
29031;DHT22;16122;50.236;11.734;2023-08-30T08:02:07;18.70;82.10
29031;DHT22;16122;50.236;11.734;2023-08-30T08:04:36;18.60;81.10
29031;DHT22;16122;50.236;11.734;2023-08-30T08:07:02;18.60;79.60
29031;DHT22;16122;50.236;11.734;2023-08-30T08:09:28;18.60;80.20
29031;DHT22;16122;50.236;11.734;2023-08-30T08:11:55;18.50;79.90
29031;DHT22;16122;50.236;11.734;2023-08-30T08:14:22;18.50;78.00
29031;DHT22;16122;50.236;11.734;2023-08-30T08:16:48;18.50;79.00
29031;DHT22;16122;50.236;11.734;2023-08-30T08:19:14;18.50;78.00
29031;DHT22;16122;50.236;11.734;2023-08-30T08:21:40;18.50;79.50
29031;DHT22;16122;50.236;11.734;2023-08-30T08:24:06;18.60;79.50
29031;DHT22;16122;50.236;11.734;2023-08-30T08:26:32;18.60;78.80
29031;DHT22;16122;50.236;11.734;2023-08-30T08:28:57;18.60;78.10
29031;DHT22;16122;50.236;11.734;2023-08-30T08:31:23;18.60;78.50
29031;DHT22;16122;50.236;11.734;2023-08-30T08:34:07;18.60;79.30
29031;DHT22;16122;50.236;11.734;2023-08-30T08:36:33;18.60;78.80
29031;DHT22;16122;50.236;11.734;2023-08-30T08:38:59;18.60;77.40
29031;DHT22;16122;50.236;11.734;2023-08-30T08:41:28;18.50;77.90
29031;DHT22;16122;50.236;11.734;2023-08-30T08:43:57;18.60;77.80
29031;DHT22;16122;50.236;11.734;2023-08-30T08:46:25;18.60;78.30
29031;DHT22;16122;50.236;11.734;2023-08-30T08:48:52;18.60;77.60
29031;DHT22;16122;50.236;11.734;2023-08-30T08:51:19;18.60;77.90
29031;DHT22;16122;50.236;11.734;2023-08-30T08:53:46;18.60;76.90
29031;DHT22;16122;50.236;11.734;2023-08-30T08:56:13;18.60;77.20
29031;DHT22;16122;50.236;11.734;2023-08-30T08:58:40;18.50;74.70
29031;DHT22;16122;50.236;11.734;2023-08-30T09:01:06;18.50;76.40
29031;DHT22;16122;50.236;11.734;2023-08-30T09:03:33;18.50;75.60
29031;DHT22;16122;50.236;11.734;2023-08-30T09:06:02;18.50;76.70
29031;DHT22;16122;50.236;11.734;2023-08-30T09:08:28;18.60;77.00
29031;DHT22;16122;50.236;11.734;2023-08-30T09:10:54;18.60;76.90
29031;DHT22;16122;50.236;11.734;2023-08-30T09:13:20;18.60;76.30
29031;DHT22;16122;50.236;11.734;2023-08-30T09:15:48;18.60;76.50
29031;DHT22;16122;50.236;11.734;2023-08-30T09:18:18;18.60;75.70
29031;DHT22;16122;50.236;11.734;2023-08-30T09:20:44;18.60;75.60
29031;DHT22;16122;50.236;11.734;2023-08-30T09:23:17;18.60;75.70
29031;DHT22;16122;50.236;11.734;2023-08-30T09:25:44;18.60;75.90
29031;DHT22;16122;50.236;11.734;2023-08-30T09:28:10;18.60;74.60
29031;DHT22;16122;50.236;11.734;2023-08-30T09:30:36;18.60;72.90
29031;DHT22;16122;50.236;11.734;2023-08-30T09:33:02;18.50;71.80
29031;DHT22;16122;50.236;11.734;2023-08-30T09:35:28;18.50;71.80
29031;DHT22;16122;50.236;11.734;2023-08-30T09:37:54;18.40;71.60
29031;DHT22;16122;50.236;11.734;2023-08-30T09:40:20;18.50;73.40
29031;DHT22;16122;50.236;11.734;2023-08-30T09:42:46;18.60;73.70
29031;DHT22;16122;50.236;11.734;2023-08-30T09:45:22;18.60;72.50
29031;DHT22;16122;50.236;11.734;2023-08-30T09:47:48;18.60;73.50
29031;DHT22;16122;50.236;11.734;2023-08-30T09:50:19;18.60;73.30
29031;DHT22;16122;50.236;11.734;2023-08-30T09:52:47;18.60;72.30
29031;DHT22;16122;50.236;11.734;2023-08-30T09:55:15;18.60;72.90
29031;DHT22;16122;50.236;11.734;2023-08-30T09:57:42;18.60;72.40
29031;DHT22;16122;50.236;11.734;2023-08-30T10:00:11;18.60;72.60
29031;DHT22;16122;50.236;11.734;2023-08-30T10:02:41;18.60;73.40
29031;DHT22;16122;50.236;11.734;2023-08-30T10:05:10;18.60;73.10
29031;DHT22;16122;50.236;11.734;2023-08-30T10:07:36;18.60;73.10
29031;DHT22;16122;50.236;11.734;2023-08-30T10:10:03;18.60;73.30
29031;DHT22;16122;50.236;11.734;2023-08-30T10:12:33;18.60;73.30
29031;DHT22;16122;50.236;11.734;2023-08-30T10:14:59;18.60;73.60
29031;DHT22;16122;50.236;11.734;2023-08-30T10:17:28;18.60;73.00
29031;DHT22;16122;50.236;11.734;2023-08-30T10:19:56;18.60;72.60
29031;DHT22;16122;50.236;11.734;2023-08-30T10:22:23;18.60;72.70
29031;DHT22;16122;50.236;11.734;2023-08-30T10:24:51;18.60;72.20
29031;DHT22;16122;50.236;11.734;2023-08-30T10:27:18;18.60;72.90
29031;DHT22;16122;50.236;11.734;2023-08-30T10:29:45;18.60;72.60
29031;DHT22;16122;50.236;11.734;2023-08-30T10:32:12;18.60;71.70
29031;DHT22;16122;50.236;11.734;2023-08-30T10:34:38;18.60;72.30
29031;DHT22;16122;50.236;11.734;2023-08-30T10:37:09;18.60;72.70
29031;DHT22;16122;50.236;11.734;2023-08-30T10:39:39;18.60;72.60
29031;DHT22;16122;50.236;11.734;2023-08-30T10:42:12;18.70;73.30
29031;DHT22;16122;50.236;11.734;2023-08-30T10:45:06;18.60;72.90
29031;DHT22;16122;50.236;11.734;2023-08-30T10:47:34;18.70;73.20
29031;DHT22;16122;50.236;11.734;2023-08-30T10:50:11;18.70;73.70
29031;DHT22;16122;50.236;11.734;2023-08-30T10:52:37;18.70;73.70
29031;DHT22;16122;50.236;11.734;2023-08-30T10:55:14;18.60;70.90
29031;DHT22;16122;50.236;11.734;2023-08-30T10:57:45;18.60;71.40
29031;DHT22;16122;50.236;11.734;2023-08-30T11:02:49;18.70;71.70
29031;DHT22;16122;50.236;11.734;2023-08-30T11:05:22;18.70;72.10
29031;DHT22;16122;50.236;11.734;2023-08-30T11:07:49;18.70;70.60
29031;DHT22;16122;50.236;11.734;2023-08-30T11:10:17;18.60;69.80
29031;DHT22;16122;50.236;11.734;2023-08-30T11:12:46;18.60;71.20
29031;DHT22;16122;50.236;11.734;2023-08-30T11:15:14;18.60;71.80
29031;DHT22;16122;50.236;11.734;2023-08-30T11:17:40;18.70;70.10
29031;DHT22;16122;50.236;11.734;2023-08-30T11:20:08;18.60;65.90
29031;DHT22;16122;50.236;11.734;2023-08-30T11:22:39;18.60;68.00
29031;DHT22;16122;50.236;11.734;2023-08-30T11:25:07;18.60;69.40
29031;DHT22;16122;50.236;11.734;2023-08-30T11:27:33;18.60;69.80
29031;DHT22;16122;50.236;11.734;2023-08-30T11:30:00;18.70;70.30
29031;DHT22;16122;50.236;11.734;2023-08-30T11:32:35;18.70;69.60
29031;DHT22;16122;50.236;11.734;2023-08-30T11:35:02;18.60;69.40
29031;DHT22;16122;50.236;11.734;2023-08-30T11:37:28;18.60;69.60
29031;DHT22;16122;50.236;11.734;2023-08-30T11:39:57;18.60;69.80
29031;DHT22;16122;50.236;11.734;2023-08-30T11:42:24;18.60;69.90
29031;DHT22;16122;50.236;11.734;2023-08-30T11:44:51;18.70;70.60
29031;DHT22;16122;50.236;11.734;2023-08-30T11:47:23;18.70;69.70
29031;DHT22;16122;50.236;11.734;2023-08-30T11:49:50;18.70;70.10
29031;DHT22;16122;50.236;11.734;2023-08-30T11:52:18;18.60;67.40
29031;DHT22;16122;50.236;11.734;2023-08-30T11:54:44;18.60;69.10
29031;DHT22;16122;50.236;11.734;2023-08-30T11:57:10;18.60;69.10
29031;DHT22;16122;50.236;11.734;2023-08-30T11:59:36;18.60;69.00
29031;DHT22;16122;50.236;11.734;2023-08-30T12:02:03;18.60;68.40
29031;DHT22;16122;50.236;11.734;2023-08-30T12:04:30;18.60;67.20
29031;DHT22;16122;50.236;11.734;2023-08-30T12:06:56;18.60;68.60
29031;DHT22;16122;50.236;11.734;2023-08-30T12:09:22;18.60;69.10
29031;DHT22;16122;50.236;11.734;2023-08-30T12:11:51;18.60;67.90
29031;DHT22;16122;50.236;11.734;2023-08-30T12:14:17;18.60;69.20
29031;DHT22;16122;50.236;11.734;2023-08-30T12:16:43;18.70;69.70
29031;DHT22;16122;50.236;11.734;2023-08-30T12:19:11;18.70;70.00
29031;DHT22;16122;50.236;11.734;2023-08-30T12:21:44;18.70;70.20
29031;DHT22;16122;50.236;11.734;2023-08-30T12:24:12;18.80;70.40
29031;DHT22;16122;50.236;11.734;2023-08-30T12:26:38;18.70;70.50
29031;DHT22;16122;50.236;11.734;2023-08-30T12:29:07;18.80;70.80
29031;DHT22;16122;50.236;11.734;2023-08-30T12:31:33;18.70;70.90
29031;DHT22;16122;50.236;11.734;2023-08-30T12:33:59;18.70;70.90
29031;DHT22;16122;50.236;11.734;2023-08-30T12:36:25;18.80;71.20
29031;DHT22;16122;50.236;11.734;2023-08-30T12:38:51;18.80;71.30
29031;DHT22;16122;50.236;11.734;2023-08-30T12:41:17;18.80;71.50
29031;DHT22;16122;50.236;11.734;2023-08-30T12:43:43;18.80;71.70
29031;DHT22;16122;50.236;11.734;2023-08-30T12:46:08;18.80;71.80
29031;DHT22;16122;50.236;11.734;2023-08-30T12:48:34;18.80;72.00
29031;DHT22;16122;50.236;11.734;2023-08-30T12:51:00;18.80;72.10
29031;DHT22;16122;50.236;11.734;2023-08-30T12:53:26;18.80;72.20
29031;DHT22;16122;50.236;11.734;2023-08-30T12:55:52;18.80;72.40
29031;DHT22;16122;50.236;11.734;2023-08-30T12:58:17;18.80;73.30
29031;DHT22;16122;50.236;11.734;2023-08-30T13:00:43;18.80;72.70
29031;DHT22;16122;50.236;11.734;2023-08-30T13:03:09;18.90;72.90
29031;DHT22;16122;50.236;11.734;2023-08-30T13:05:35;18.90;72.90
29031;DHT22;16122;50.236;11.734;2023-08-30T13:08:02;18.80;72.90
29031;DHT22;16122;50.236;11.734;2023-08-30T13:10:28;18.90;73.00
29031;DHT22;16122;50.236;11.734;2023-08-30T13:12:53;18.90;73.10
29031;DHT22;16122;50.236;11.734;2023-08-30T13:15:19;18.90;73.20
29031;DHT22;16122;50.236;11.734;2023-08-30T13:17:46;18.90;73.20
29031;DHT22;16122;50.236;11.734;2023-08-30T13:20:11;18.90;73.30
29031;DHT22;16122;50.236;11.734;2023-08-30T13:22:37;18.90;73.50
29031;DHT22;16122;50.236;11.734;2023-08-30T13:25:03;18.90;73.50
29031;DHT22;16122;50.236;11.734;2023-08-30T13:27:29;18.90;73.60
29031;DHT22;16122;50.236;11.734;2023-08-30T13:29:55;18.90;73.60
29031;DHT22;16122;50.236;11.734;2023-08-30T13:32:21;18.90;73.70
29031;DHT22;16122;50.236;11.734;2023-08-30T13:34:47;18.90;73.70
29031;DHT22;16122;50.236;11.734;2023-08-30T13:37:13;18.90;73.80
29031;DHT22;16122;50.236;11.734;2023-08-30T13:39:39;18.90;73.90
29031;DHT22;16122;50.236;11.734;2023-08-30T13:42:05;18.90;74.00
29031;DHT22;16122;50.236;11.734;2023-08-30T13:44:31;18.90;74.10
29031;DHT22;16122;50.236;11.734;2023-08-30T13:46:57;19.00;74.20
29031;DHT22;16122;50.236;11.734;2023-08-30T13:49:24;18.90;74.10
29031;DHT22;16122;50.236;11.734;2023-08-30T13:51:52;18.90;75.10
29031;DHT22;16122;50.236;11.734;2023-08-30T13:54:18;18.90;74.30
29031;DHT22;16122;50.236;11.734;2023-08-30T13:56:43;19.00;74.60
29031;DHT22;16122;50.236;11.734;2023-08-30T13:59:09;18.90;74.40
29031;DHT22;16122;50.236;11.734;2023-08-30T14:01:35;19.00;74.60
29031;DHT22;16122;50.236;11.734;2023-08-30T14:04:01;19.00;75.40
29031;DHT22;16122;50.236;11.734;2023-08-30T14:06:30;19.00;74.70
29031;DHT22;16122;50.236;11.734;2023-08-30T14:08:57;19.00;74.70
29031;DHT22;16122;50.236;11.734;2023-08-30T14:11:22;19.00;74.80
29031;DHT22;16122;50.236;11.734;2023-08-30T14:13:48;19.00;74.70
29031;DHT22;16122;50.236;11.734;2023-08-30T14:16:14;19.00;74.80
29031;DHT22;16122;50.236;11.734;2023-08-30T14:18:40;19.00;74.80
29031;DHT22;16122;50.236;11.734;2023-08-30T14:21:06;19.00;74.80
29031;DHT22;16122;50.236;11.734;2023-08-30T14:23:31;19.00;74.70
29031;DHT22;16122;50.236;11.734;2023-08-30T14:26:05;19.00;74.90
29031;DHT22;16122;50.236;11.734;2023-08-30T14:28:38;19.00;74.80
29031;DHT22;16122;50.236;11.734;2023-08-30T14:31:07;19.00;74.80
29031;DHT22;16122;50.236;11.734;2023-08-30T14:33:34;19.00;75.20
29031;DHT22;16122;50.236;11.734;2023-08-30T14:36:00;19.00;75.60
29031;DHT22;16122;50.236;11.734;2023-08-30T14:38:28;19.00;75.80
29031;DHT22;16122;50.236;11.734;2023-08-30T14:40:58;19.00;76.00
29031;DHT22;16122;50.236;11.734;2023-08-30T14:43:24;19.00;76.20
29031;DHT22;16122;50.236;11.734;2023-08-30T14:45:50;19.00;76.30
29031;DHT22;16122;50.236;11.734;2023-08-30T14:48:16;19.00;76.50
29031;DHT22;16122;50.236;11.734;2023-08-30T14:50:42;19.00;76.60
29031;DHT22;16122;50.236;11.734;2023-08-30T14:53:08;19.00;76.60
29031;DHT22;16122;50.236;11.734;2023-08-30T14:55:34;19.00;76.70
29031;DHT22;16122;50.236;11.734;2023-08-30T14:58:00;19.00;76.70
29031;DHT22;16122;50.236;11.734;2023-08-30T15:00:26;19.00;76.70
29031;DHT22;16122;50.236;11.734;2023-08-30T15:02:52;19.00;76.60
29031;DHT22;16122;50.236;11.734;2023-08-30T15:05:18;19.00;76.70
29031;DHT22;16122;50.236;11.734;2023-08-30T15:07:44;19.00;76.90
29031;DHT22;16122;50.236;11.734;2023-08-30T15:10:10;19.00;76.80
29031;DHT22;16122;50.236;11.734;2023-08-30T15:12:37;19.00;76.70
29031;DHT22;16122;50.236;11.734;2023-08-30T15:15:03;19.00;76.90
29031;DHT22;16122;50.236;11.734;2023-08-30T15:17:29;19.00;76.80
29031;DHT22;16122;50.236;11.734;2023-08-30T15:19:55;19.00;76.90
29031;DHT22;16122;50.236;11.734;2023-08-30T15:22:21;19.00;77.00